sensor_id;sensor_type;location;lat;lon;timestamp;P1;durP1;ratioP1;P2;durP2;ratioP2
18520;SDS011;9390;51.244;6.982;2023-09-07T00:00:28;10.73;;;6.22;;
18520;SDS011;9390;51.244;6.982;2023-09-07T00:03:01;13.45;;;6.38;;
18520;SDS011;9390;51.244;6.982;2023-09-07T00:08:04;15.93;;;6.60;;
18520;SDS011;9390;51.244;6.982;2023-09-07T00:10:36;12.27;;;7.00;;
18520;SDS011;9390;51.244;6.982;2023-09-07T00:13:07;15.43;;;6.53;;
18520;SDS011;9390;51.244;6.982;2023-09-07T00:15:39;12.40;;;6.55;;
18520;SDS011;9390;51.244;6.982;2023-09-07T00:18:11;12.57;;;6.50;;
18520;SDS011;9390;51.244;6.982;2023-09-07T00:20:43;15.27;;;6.68;;
18520;SDS011;9390;51.244;6.982;2023-09-07T00:23:14;14.75;;;7.45;;
18520;SDS011;9390;51.244;6.982;2023-09-07T00:25:46;14.05;;;7.07;;
18520;SDS011;9390;51.244;6.982;2023-09-07T00:28:17;11.63;;;6.57;;
18520;SDS011;9390;51.244;6.982;2023-09-07T00:30:49;12.70;;;6.57;;
18520;SDS011;9390;51.244;6.982;2023-09-07T00:33:22;11.05;;;6.15;;
18520;SDS011;9390;51.244;6.982;2023-09-07T00:35:53;13.43;;;6.25;;
18520;SDS011;9390;51.244;6.982;2023-09-07T00:38:24;12.45;;;6.53;;
18520;SDS011;9390;51.244;6.982;2023-09-07T00:40:56;15.55;;;7.00;;
18520;SDS011;9390;51.244;6.982;2023-09-07T00:43:27;16.10;;;6.68;;
18520;SDS011;9390;51.244;6.982;2023-09-07T00:45:58;19.40;;;7.07;;
18520;SDS011;9390;51.244;6.982;2023-09-07T00:48:31;17.58;;;7.18;;
18520;SDS011;9390;51.244;6.982;2023-09-07T00:51:03;12.05;;;6.65;;
18520;SDS011;9390;51.244;6.982;2023-09-07T00:53:35;14.40;;;7.28;;
18520;SDS011;9390;51.244;6.982;2023-09-07T00:56:07;12.80;;;7.27;;
18520;SDS011;9390;51.244;6.982;2023-09-07T00:58:38;13.77;;;6.65;;
18520;SDS011;9390;51.244;6.982;2023-09-07T01:01:10;13.30;;;7.13;;
18520;SDS011;9390;51.244;6.982;2023-09-07T01:03:42;11.65;;;6.60;;
18520;SDS011;9390;51.244;6.982;2023-09-07T01:06:15;20.05;;;8.45;;
18520;SDS011;9390;51.244;6.982;2023-09-07T01:08:50;15.50;;;6.47;;
18520;SDS011;9390;51.244;6.982;2023-09-07T01:13:54;13.82;;;7.20;;
18520;SDS011;9390;51.244;6.982;2023-09-07T01:16:25;16.98;;;7.22;;
18520;SDS011;9390;51.244;6.982;2023-09-07T01:18:59;12.25;;;6.28;;
18520;SDS011;9390;51.244;6.982;2023-09-07T01:21:33;13.02;;;6.38;;
18520;SDS011;9390;51.244;6.982;2023-09-07T01:24:06;10.73;;;6.28;;
18520;SDS011;9390;51.244;6.982;2023-09-07T01:26:39;14.40;;;6.70;;
18520;SDS011;9390;51.244;6.982;2023-09-07T01:29:12;11.20;;;6.28;;
18520;SDS011;9390;51.244;6.982;2023-09-07T01:31:43;14.20;;;5.88;;
18520;SDS011;9390;51.244;6.982;2023-09-07T01:34:15;12.02;;;6.65;;
18520;SDS011;9390;51.244;6.982;2023-09-07T01:36:48;14.05;;;6.63;;
18520;SDS011;9390;51.244;6.982;2023-09-07T01:39:19;12.32;;;6.65;;
18520;SDS011;9390;51.244;6.982;2023-09-07T01:41:50;11.85;;;6.25;;
18520;SDS011;9390;51.244;6.982;2023-09-07T01:44:22;11.45;;;5.93;;
18520;SDS011;9390;51.244;6.982;2023-09-07T01:46:53;13.98;;;6.15;;
18520;SDS011;9390;51.244;6.982;2023-09-07T01:49:25;12.30;;;6.47;;
18520;SDS011;9390;51.244;6.982;2023-09-07T01:51:57;12.50;;;6.60;;
18520;SDS011;9390;51.244;6.982;2023-09-07T01:54:29;13.60;;;6.28;;
18520;SDS011;9390;51.244;6.982;2023-09-07T01:57:00;11.13;;;6.07;;
18520;SDS011;9390;51.244;6.982;2023-09-07T01:59:32;12.82;;;6.38;;
18520;SDS011;9390;51.244;6.982;2023-09-07T02:02:03;13.90;;;6.50;;
18520;SDS011;9390;51.244;6.982;2023-09-07T02:04:35;11.55;;;6.43;;
18520;SDS011;9390;51.244;6.982;2023-09-07T02:07:07;10.43;;;5.75;;
18520;SDS011;9390;51.244;6.982;2023-09-07T02:09:39;13.75;;;5.97;;
18520;SDS011;9390;51.244;6.982;2023-09-07T02:12:10;13.52;;;6.40;;
18520;SDS011;9390;51.244;6.982;2023-09-07T02:14:42;11.52;;;6.25;;
18520;SDS011;9390;51.244;6.982;2023-09-07T02:17:13;13.63;;;6.50;;
18520;SDS011;9390;51.244;6.982;2023-09-07T02:19:47;13.07;;;6.22;;
18520;SDS011;9390;51.244;6.982;2023-09-07T02:22:21;17.45;;;5.93;;
18520;SDS011;9390;51.244;6.982;2023-09-07T02:24:53;11.80;;;5.82;;
18520;SDS011;9390;51.244;6.982;2023-09-07T02:27:24;12.07;;;6.15;;
18520;SDS011;9390;51.244;6.982;2023-09-07T02:29:56;10.32;;;5.68;;
18520;SDS011;9390;51.244;6.982;2023-09-07T02:32:27;10.35;;;5.75;;
18520;SDS011;9390;51.244;6.982;2023-09-07T02:34:58;12.35;;;5.63;;
18520;SDS011;9390;51.244;6.982;2023-09-07T02:37:31;11.98;;;5.95;;
18520;SDS011;9390;51.244;6.982;2023-09-07T02:40:03;10.98;;;5.93;;
18520;SDS011;9390;51.244;6.982;2023-09-07T02:42:37;10.43;;;5.38;;
18520;SDS011;9390;51.244;6.982;2023-09-07T02:45:10;13.32;;;6.30;;
18520;SDS011;9390;51.244;6.982;2023-09-07T02:47:41;11.93;;;5.47;;
18520;SDS011;9390;51.244;6.982;2023-09-07T02:50:13;15.73;;;5.88;;
18520;SDS011;9390;51.244;6.982;2023-09-07T02:52:47;9.02;;;5.25;;
18520;SDS011;9390;51.244;6.982;2023-09-07T02:55:18;8.90;;;4.90;;
18520;SDS011;9390;51.244;6.982;2023-09-07T02:57:50;9.73;;;5.60;;
18520;SDS011;9390;51.244;6.982;2023-09-07T03:00:21;10.98;;;5.78;;
18520;SDS011;9390;51.244;6.982;2023-09-07T03:02:53;9.13;;;5.32;;
18520;SDS011;9390;51.244;6.982;2023-09-07T03:05:26;13.73;;;5.63;;
18520;SDS011;9390;51.244;6.982;2023-09-07T03:07:59;12.00;;;5.40;;
18520;SDS011;9390;51.244;6.982;2023-09-07T03:10:32;9.30;;;5.25;;
18520;SDS011;9390;51.244;6.982;2023-09-07T03:13:03;10.93;;;5.53;;
18520;SDS011;9390;51.244;6.982;2023-09-07T03:15:35;10.02;;;5.05;;
18520;SDS011;9390;51.244;6.982;2023-09-07T03:18:07;10.93;;;5.18;;
18520;SDS011;9390;51.244;6.982;2023-09-07T03:20:39;15.02;;;5.60;;
18520;SDS011;9390;51.244;6.982;2023-09-07T03:23:12;16.13;;;5.53;;
18520;SDS011;9390;51.244;6.982;2023-09-07T03:25:43;12.00;;;5.95;;
18520;SDS011;9390;51.244;6.982;2023-09-07T03:28:14;10.52;;;5.55;;
18520;SDS011;9390;51.244;6.982;2023-09-07T03:30:46;10.40;;;5.68;;
18520;SDS011;9390;51.244;6.982;2023-09-07T03:33:17;16.08;;;5.47;;
18520;SDS011;9390;51.244;6.982;2023-09-07T03:35:49;10.63;;;5.60;;
18520;SDS011;9390;51.244;6.982;2023-09-07T03:38:23;11.75;;;5.85;;
18520;SDS011;9390;51.244;6.982;2023-09-07T03:40:54;17.17;;;5.65;;
18520;SDS011;9390;51.244;6.982;2023-09-07T03:43:26;11.13;;;5.78;;
18520;SDS011;9390;51.244;6.982;2023-09-07T03:45:57;9.95;;;5.97;;
18520;SDS011;9390;51.244;6.982;2023-09-07T03:48:29;13.25;;;5.88;;
18520;SDS011;9390;51.244;6.982;2023-09-07T03:51:00;11.63;;;5.32;;
18520;SDS011;9390;51.244;6.982;2023-09-07T03:53:33;11.80;;;6.20;;
18520;SDS011;9390;51.244;6.982;2023-09-07T03:56:04;14.38;;;6.10;;
18520;SDS011;9390;51.244;6.982;2023-09-07T03:58:35;12.38;;;6.38;;
18520;SDS011;9390;51.244;6.982;2023-09-07T04:01:07;15.48;;;6.32;;
18520;SDS011;9390;51.244;6.982;2023-09-07T04:03:39;10.02;;;5.95;;
18520;SDS011;9390;51.244;6.982;2023-09-07T04:06:11;13.02;;;5.68;;
18520;SDS011;9390;51.244;6.982;2023-09-07T04:08:44;12.20;;;5.93;;
18520;SDS011;9390;51.244;6.982;2023-09-07T04:11:15;16.48;;;6.28;;
18520;SDS011;9390;51.244;6.982;2023-09-07T04:13:47;14.85;;;5.75;;
18520;SDS011;9390;51.244;6.982;2023-09-07T04:16:18;13.35;;;5.75;;
18520;SDS011;9390;51.244;6.982;2023-09-07T04:18:50;22.30;;;6.32;;
18520;SDS011;9390;51.244;6.982;2023-09-07T04:21:21;14.82;;;6.03;;
18520;SDS011;9390;51.244;6.982;2023-09-07T04:23:54;18.40;;;5.82;;
18520;SDS011;9390;51.244;6.982;2023-09-07T04:26:26;14.25;;;6.20;;
18520;SDS011;9390;51.244;6.982;2023-09-07T04:28:57;23.77;;;7.00;;
18520;SDS011;9390;51.244;6.982;2023-09-07T04:31:29;22.33;;;6.32;;
18520;SDS011;9390;51.244;6.982;2023-09-07T04:34:01;16.08;;;6.75;;
18520;SDS011;9390;51.244;6.982;2023-09-07T04:36:33;18.23;;;6.18;;
18520;SDS011;9390;51.244;6.982;2023-09-07T04:39:05;15.32;;;7.35;;
18520;SDS011;9390;51.244;6.982;2023-09-07T04:41:37;16.58;;;6.50;;
18520;SDS011;9390;51.244;6.982;2023-09-07T04:44:08;17.80;;;7.18;;
18520;SDS011;9390;51.244;6.982;2023-09-07T04:46:40;17.45;;;8.18;;
18520;SDS011;9390;51.244;6.982;2023-09-07T04:49:11;17.80;;;7.55;;
18520;SDS011;9390;51.244;6.982;2023-09-07T04:51:42;19.35;;;8.23;;
18520;SDS011;9390;51.244;6.982;2023-09-07T04:54:15;13.20;;;6.82;;
18520;SDS011;9390;51.244;6.982;2023-09-07T04:56:47;19.58;;;6.80;;
18520;SDS011;9390;51.244;6.982;2023-09-07T04:59:18;18.77;;;7.25;;
18520;SDS011;9390;51.244;6.982;2023-09-07T05:01:50;16.27;;;7.22;;
18520;SDS011;9390;51.244;6.982;2023-09-07T05:04:21;15.82;;;7.00;;
18520;SDS011;9390;51.244;6.982;2023-09-07T05:06:52;13.60;;;7.20;;
18520;SDS011;9390;51.244;6.982;2023-09-07T05:09:25;15.65;;;7.57;;
18520;SDS011;9390;51.244;6.982;2023-09-07T05:11:59;16.73;;;7.25;;
18520;SDS011;9390;51.244;6.982;2023-09-07T05:14:30;15.18;;;6.93;;
18520;SDS011;9390;51.244;6.982;2023-09-07T05:17:02;13.70;;;6.72;;
18520;SDS011;9390;51.244;6.982;2023-09-07T05:19:33;19.35;;;7.28;;
18520;SDS011;9390;51.244;6.982;2023-09-07T05:22:05;13.18;;;6.65;;
18520;SDS011;9390;51.244;6.982;2023-09-07T05:24:38;16.15;;;6.57;;
18520;SDS011;9390;51.244;6.982;2023-09-07T05:27:10;19.98;;;7.25;;
18520;SDS011;9390;51.244;6.982;2023-09-07T05:29:42;12.88;;;6.97;;
18520;SDS011;9390;51.244;6.982;2023-09-07T05:32:14;14.52;;;6.93;;
18520;SDS011;9390;51.244;6.982;2023-09-07T05:34:45;13.07;;;6.25;;
18520;SDS011;9390;51.244;6.982;2023-09-07T05:37:17;14.52;;;6.57;;
18520;SDS011;9390;51.244;6.982;2023-09-07T05:39:49;14.93;;;6.35;;
18520;SDS011;9390;51.244;6.982;2023-09-07T05:42:21;14.38;;;6.80;;
18520;SDS011;9390;51.244;6.982;2023-09-07T05:44:52;17.58;;;7.30;;
18520;SDS011;9390;51.244;6.982;2023-09-07T05:47:23;14.38;;;6.97;;
18520;SDS011;9390;51.244;6.982;2023-09-07T05:49:56;16.55;;;6.93;;
18520;SDS011;9390;51.244;6.982;2023-09-07T05:52:27;15.88;;;7.38;;
18520;SDS011;9390;51.244;6.982;2023-09-07T05:55:00;12.63;;;7.10;;
18520;SDS011;9390;51.244;6.982;2023-09-07T05:57:32;16.33;;;7.15;;
18520;SDS011;9390;51.244;6.982;2023-09-07T06:00:04;16.15;;;7.05;;
18520;SDS011;9390;51.244;6.982;2023-09-07T06:02:37;18.85;;;7.63;;
18520;SDS011;9390;51.244;6.982;2023-09-07T06:05:08;12.57;;;6.85;;
18520;SDS011;9390;51.244;6.982;2023-09-07T06:07:40;22.45;;;7.82;;
18520;SDS011;9390;51.244;6.982;2023-09-07T06:10:13;17.17;;;8.27;;
18520;SDS011;9390;51.244;6.982;2023-09-07T06:12:45;20.63;;;8.35;;
18520;SDS011;9390;51.244;6.982;2023-09-07T06:15:16;25.80;;;9.05;;
18520;SDS011;9390;51.244;6.982;2023-09-07T06:17:48;16.60;;;8.30;;
18520;SDS011;9390;51.244;6.982;2023-09-07T06:20:19;25.02;;;8.38;;
18520;SDS011;9390;51.244;6.982;2023-09-07T06:22:51;26.40;;;8.55;;
18520;SDS011;9390;51.244;6.982;2023-09-07T06:25:24;19.02;;;8.02;;
18520;SDS011;9390;51.244;6.982;2023-09-07T06:27:55;19.30;;;7.60;;
18520;SDS011;9390;51.244;6.982;2023-09-07T06:30:30;20.00;;;7.80;;
18520;SDS011;9390;51.244;6.982;2023-09-07T06:33:01;13.43;;;7.20;;
18520;SDS011;9390;51.244;6.982;2023-09-07T06:35:33;14.75;;;6.68;;
18520;SDS011;9390;51.244;6.982;2023-09-07T06:38:05;22.80;;;7.38;;
18520;SDS011;9390;51.244;6.982;2023-09-07T06:40:37;11.70;;;6.25;;
18520;SDS011;9390;51.244;6.982;2023-09-07T06:43:09;16.33;;;7.20;;
18520;SDS011;9390;51.244;6.982;2023-09-07T06:45:40;15.65;;;6.93;;
18520;SDS011;9390;51.244;6.982;2023-09-07T06:48:11;13.68;;;6.60;;
18520;SDS011;9390;51.244;6.982;2023-09-07T06:50:43;19.98;;;7.22;;
18520;SDS011;9390;51.244;6.982;2023-09-07T06:53:14;15.93;;;6.97;;
18520;SDS011;9390;51.244;6.982;2023-09-07T06:55:47;13.40;;;6.70;;
18520;SDS011;9390;51.244;6.982;2023-09-07T06:58:28;14.20;;;6.25;;
18520;SDS011;9390;51.244;6.982;2023-09-07T07:01:02;16.90;;;6.43;;
18520;SDS011;9390;51.244;6.982;2023-09-07T07:03:34;17.92;;;6.32;;
18520;SDS011;9390;51.244;6.982;2023-09-07T07:06:05;13.85;;;6.50;;
18520;SDS011;9390;51.244;6.982;2023-09-07T07:08:37;11.90;;;6.10;;
18520;SDS011;9390;51.244;6.982;2023-09-07T07:11:09;10.40;;;5.40;;
18520;SDS011;9390;51.244;6.982;2023-09-07T07:13:41;10.75;;;5.72;;
18520;SDS011;9390;51.244;6.982;2023-09-07T07:16:12;13.00;;;6.00;;
18520;SDS011;9390;51.244;6.982;2023-09-07T07:18:44;10.80;;;5.43;;
18520;SDS011;9390;51.244;6.982;2023-09-07T07:21:16;9.88;;;4.22;;
18520;SDS011;9390;51.244;6.982;2023-09-07T07:23:47;9.45;;;4.20;;
18520;SDS011;9390;51.244;6.982;2023-09-07T07:26:20;7.55;;;4.18;;
18520;SDS011;9390;51.244;6.982;2023-09-07T07:28:51;9.55;;;4.35;;
18520;SDS011;9390;51.244;6.982;2023-09-07T07:31:22;8.48;;;4.35;;
18520;SDS011;9390;51.244;6.982;2023-09-07T07:33:54;8.02;;;3.78;;
18520;SDS011;9390;51.244;6.982;2023-09-07T07:36:25;9.90;;;4.20;;
18520;SDS011;9390;51.244;6.982;2023-09-07T07:38:57;7.63;;;3.75;;
18520;SDS011;9390;51.244;6.982;2023-09-07T07:41:30;7.07;;;3.90;;
18520;SDS011;9390;51.244;6.982;2023-09-07T07:44:01;8.60;;;4.15;;
18520;SDS011;9390;51.244;6.982;2023-09-07T07:46:33;9.90;;;4.00;;
18520;SDS011;9390;51.244;6.982;2023-09-07T07:49:04;7.60;;;4.15;;
18520;SDS011;9390;51.244;6.982;2023-09-07T07:51:36;6.95;;;3.90;;
18520;SDS011;9390;51.244;6.982;2023-09-07T07:54:08;12.75;;;3.90;;
18520;SDS011;9390;51.244;6.982;2023-09-07T07:56:40;8.20;;;4.15;;
18520;SDS011;9390;51.244;6.982;2023-09-07T07:59:12;9.20;;;3.78;;
18520;SDS011;9390;51.244;6.982;2023-09-07T08:01:43;10.63;;;5.15;;
18520;SDS011;9390;51.244;6.982;2023-09-07T08:04:15;7.18;;;4.03;;
18520;SDS011;9390;51.244;6.982;2023-09-07T08:06:46;7.88;;;3.75;;
18520;SDS011;9390;51.244;6.982;2023-09-07T08:09:17;7.93;;;4.00;;
18520;SDS011;9390;51.244;6.982;2023-09-07T08:11:50;6.32;;;3.72;;
18520;SDS011;9390;51.244;6.982;2023-09-07T08:14:22;7.82;;;3.90;;
18520;SDS011;9390;51.244;6.982;2023-09-07T08:16:54;7.15;;;3.90;;
18520;SDS011;9390;51.244;6.982;2023-09-07T08:19:26;10.05;;;4.13;;
18520;SDS011;9390;51.244;6.982;2023-09-07T08:21:58;7.38;;;3.90;;
18520;SDS011;9390;51.244;6.982;2023-09-07T08:24:29;10.50;;;3.97;;
18520;SDS011;9390;51.244;6.982;2023-09-07T08:27:02;8.27;;;3.45;;
18520;SDS011;9390;51.244;6.982;2023-09-07T08:29:34;7.10;;;3.70;;
18520;SDS011;9390;51.244;6.982;2023-09-07T08:32:06;7.28;;;3.50;;
18520;SDS011;9390;51.244;6.982;2023-09-07T08:34:38;7.60;;;3.92;;
18520;SDS011;9390;51.244;6.982;2023-09-07T08:37:10;9.60;;;4.20;;
18520;SDS011;9390;51.244;6.982;2023-09-07T08:39:42;9.15;;;4.07;;
18520;SDS011;9390;51.244;6.982;2023-09-07T08:42:14;7.55;;;3.90;;
18520;SDS011;9390;51.244;6.982;2023-09-07T08:44:46;15.90;;;4.28;;
18520;SDS011;9390;51.244;6.982;2023-09-07T08:47:18;8.82;;;4.00;;
18520;SDS011;9390;51.244;6.982;2023-09-07T08:49:50;6.93;;;3.53;;
18520;SDS011;9390;51.244;6.982;2023-09-07T08:52:21;9.00;;;3.87;;
18520;SDS011;9390;51.244;6.982;2023-09-07T08:54:53;8.93;;;4.05;;
18520;SDS011;9390;51.244;6.982;2023-09-07T08:57:26;8.40;;;3.90;;
18520;SDS011;9390;51.244;6.982;2023-09-07T08:59:58;8.55;;;3.95;;
18520;SDS011;9390;51.244;6.982;2023-09-07T09:02:29;12.98;;;3.72;;
18520;SDS011;9390;51.244;6.982;2023-09-07T09:05:01;7.47;;;4.00;;
18520;SDS011;9390;51.244;6.982;2023-09-07T09:07:32;7.25;;;3.72;;
18520;SDS011;9390;51.244;6.982;2023-09-07T09:10:05;8.93;;;3.97;;
18520;SDS011;9390;51.244;6.982;2023-09-07T09:12:45;8.35;;;4.03;;
18520;SDS011;9390;51.244;6.982;2023-09-07T09:15:17;9.55;;;4.20;;
18520;SDS011;9390;51.244;6.982;2023-09-07T09:17:48;7.80;;;3.90;;
18520;SDS011;9390;51.244;6.982;2023-09-07T09:20:21;6.80;;;3.80;;
18520;SDS011;9390;51.244;6.982;2023-09-07T09:22:54;7.63;;;3.65;;
18520;SDS011;9390;51.244;6.982;2023-09-07T09:25:26;12.02;;;4.72;;
18520;SDS011;9390;51.244;6.982;2023-09-07T09:27:59;8.23;;;3.90;;
18520;SDS011;9390;51.244;6.982;2023-09-07T09:30:30;10.73;;;3.92;;
18520;SDS011;9390;51.244;6.982;2023-09-07T09:33:01;9.57;;;4.13;;
18520;SDS011;9390;51.244;6.982;2023-09-07T09:35:37;13.00;;;3.75;;
18520;SDS011;9390;51.244;6.982;2023-09-07T09:38:09;8.05;;;4.15;;
18520;SDS011;9390;51.244;6.982;2023-09-07T09:40:40;7.95;;;3.58;;
18520;SDS011;9390;51.244;6.982;2023-09-07T09:43:13;7.53;;;3.53;;
18520;SDS011;9390;51.244;6.982;2023-09-07T09:45:45;6.72;;;3.28;;
18520;SDS011;9390;51.244;6.982;2023-09-07T09:48:16;5.80;;;3.30;;
18520;SDS011;9390;51.244;6.982;2023-09-07T09:50:48;7.38;;;3.25;;
18520;SDS011;9390;51.244;6.982;2023-09-07T09:53:20;7.47;;;3.85;;
18520;SDS011;9390;51.244;6.982;2023-09-07T09:55:52;7.47;;;3.80;;
18520;SDS011;9390;51.244;6.982;2023-09-07T09:58:25;7.80;;;3.60;;
18520;SDS011;9390;51.244;6.982;2023-09-07T10:00:58;7.10;;;3.25;;
18520;SDS011;9390;51.244;6.982;2023-09-07T10:03:31;7.60;;;3.00;;
18520;SDS011;9390;51.244;6.982;2023-09-07T10:06:09;6.15;;;3.10;;
18520;SDS011;9390;51.244;6.982;2023-09-07T10:08:43;6.07;;;3.10;;
18520;SDS011;9390;51.244;6.982;2023-09-07T10:11:26;7.72;;;3.42;;
18520;SDS011;9390;51.244;6.982;2023-09-07T10:14:02;6.47;;;3.25;;
18520;SDS011;9390;51.244;6.982;2023-09-07T10:16:41;6.65;;;3.35;;
18520;SDS011;9390;51.244;6.982;2023-09-07T10:19:13;6.40;;;3.20;;
18520;SDS011;9390;51.244;6.982;2023-09-07T10:24:23;9.18;;;3.38;;
18520;SDS011;9390;51.244;6.982;2023-09-07T10:26:56;6.80;;;3.33;;
18520;SDS011;9390;51.244;6.982;2023-09-07T10:29:40;9.00;;;3.50;;
18520;SDS011;9390;51.244;6.982;2023-09-07T10:32:12;7.95;;;3.40;;
18520;SDS011;9390;51.244;6.982;2023-09-07T10:34:46;9.43;;;3.80;;
18520;SDS011;9390;51.244;6.982;2023-09-07T10:37:18;7.80;;;3.50;;
18520;SDS011;9390;51.244;6.982;2023-09-07T10:39:50;8.73;;;3.63;;
18520;SDS011;9390;51.244;6.982;2023-09-07T10:42:21;7.55;;;3.45;;
18520;SDS011;9390;51.244;6.982;2023-09-07T10:44:55;7.72;;;3.75;;
18520;SDS011;9390;51.244;6.982;2023-09-07T10:47:26;7.32;;;3.45;;
18520;SDS011;9390;51.244;6.982;2023-09-07T10:49:58;6.65;;;3.00;;
18520;SDS011;9390;51.244;6.982;2023-09-07T10:52:30;8.03;;;3.17;;
18520;SDS011;9390;51.244;6.982;2023-09-07T10:55:01;8.65;;;3.75;;
18520;SDS011;9390;51.244;6.982;2023-09-07T10:57:33;8.35;;;3.50;;
18520;SDS011;9390;51.244;6.982;2023-09-07T11:00:14;7.75;;;2.88;;
18520;SDS011;9390;51.244;6.982;2023-09-07T11:02:46;5.82;;;3.38;;
18520;SDS011;9390;51.244;6.982;2023-09-07T11:05:18;10.18;;;3.10;;
18520;SDS011;9390;51.244;6.982;2023-09-07T11:07:49;6.80;;;3.40;;
18520;SDS011;9390;51.244;6.982;2023-09-07T11:10:21;7.03;;;3.28;;
18520;SDS011;9390;51.244;6.982;2023-09-07T11:12:52;8.13;;;3.40;;
18520;SDS011;9390;51.244;6.982;2023-09-07T11:15:25;6.20;;;3.30;;
18520;SDS011;9390;51.244;6.982;2023-09-07T11:17:56;7.95;;;3.25;;
18520;SDS011;9390;51.244;6.982;2023-09-07T11:20:27;7.70;;;3.47;;
18520;SDS011;9390;51.244;6.982;2023-09-07T11:22:59;6.78;;;3.10;;
18520;SDS011;9390;51.244;6.982;2023-09-07T11:25:33;6.10;;;3.07;;
18520;SDS011;9390;51.244;6.982;2023-09-07T11:28:05;6.90;;;3.15;;
18520;SDS011;9390;51.244;6.982;2023-09-07T11:30:47;8.65;;;3.55;;
18520;SDS011;9390;51.244;6.982;2023-09-07T11:33:20;6.50;;;3.40;;
18520;SDS011;9390;51.244;6.982;2023-09-07T11:35:52;5.78;;;3.10;;
18520;SDS011;9390;51.244;6.982;2023-09-07T11:38:28;6.53;;;3.00;;
18520;SDS011;9390;51.244;6.982;2023-09-07T11:41:00;5.95;;;3.08;;
18520;SDS011;9390;51.244;6.982;2023-09-07T11:43:31;8.52;;;3.88;;
18520;SDS011;9390;51.244;6.982;2023-09-07T11:46:05;5.75;;;2.97;;
18520;SDS011;9390;51.244;6.982;2023-09-07T11:48:36;6.03;;;3.08;;
18520;SDS011;9390;51.244;6.982;2023-09-07T11:51:07;5.75;;;2.97;;
18520;SDS011;9390;51.244;6.982;2023-09-07T11:53:39;11.27;;;3.13;;
18520;SDS011;9390;51.244;6.982;2023-09-07T11:56:10;6.07;;;3.03;;
18520;SDS011;9390;51.244;6.982;2023-09-07T11:58:41;9.02;;;3.15;;
18520;SDS011;9390;51.244;6.982;2023-09-07T12:01:15;9.27;;;3.28;;
18520;SDS011;9390;51.244;6.982;2023-09-07T12:03:47;6.60;;;2.90;;
18520;SDS011;9390;51.244;6.982;2023-09-07T12:06:18;5.57;;;3.03;;
18520;SDS011;9390;51.244;6.982;2023-09-07T12:08:59;7.57;;;3.22;;
18520;SDS011;9390;51.244;6.982;2023-09-07T12:11:32;9.18;;;3.38;;
18520;SDS011;9390;51.244;6.982;2023-09-07T12:14:03;6.63;;;3.60;;
18520;SDS011;9390;51.244;6.982;2023-09-07T12:16:37;9.32;;;3.22;;
18520;SDS011;9390;51.244;6.982;2023-09-07T12:19:08;11.05;;;3.65;;
18520;SDS011;9390;51.244;6.982;2023-09-07T12:21:40;6.03;;;3.10;;
18520;SDS011;9390;51.244;6.982;2023-09-07T12:24:12;8.05;;;3.58;;
18520;SDS011;9390;51.244;6.982;2023-09-07T12:26:43;5.72;;;3.65;;
18520;SDS011;9390;51.244;6.982;2023-09-07T12:29:14;6.70;;;3.38;;
18520;SDS011;9390;51.244;6.982;2023-09-07T12:31:47;8.63;;;3.50;;
18520;SDS011;9390;51.244;6.982;2023-09-07T12:34:19;9.13;;;3.58;;
18520;SDS011;9390;51.244;6.982;2023-09-07T12:36:50;7.20;;;3.55;;
18520;SDS011;9390;51.244;6.982;2023-09-07T12:39:21;9.05;;;3.83;;
18520;SDS011;9390;51.244;6.982;2023-09-07T12:41:53;7.93;;;3.75;;
18520;SDS011;9390;51.244;6.982;2023-09-07T12:44:24;8.30;;;3.33;;
18520;SDS011;9390;51.244;6.982;2023-09-07T12:46:57;7.53;;;3.50;;
18520;SDS011;9390;51.244;6.982;2023-09-07T12:49:28;8.35;;;3.60;;
18520;SDS011;9390;51.244;6.982;2023-09-07T12:52:00;10.07;;;3.80;;
18520;SDS011;9390;51.244;6.982;2023-09-07T12:54:33;7.50;;;3.63;;
18520;SDS011;9390;51.244;6.982;2023-09-07T12:57:04;8.00;;;3.78;;
18520;SDS011;9390;51.244;6.982;2023-09-07T12:59:35;11.10;;;3.60;;
18520;SDS011;9390;51.244;6.982;2023-09-07T13:02:08;10.23;;;3.87;;
18520;SDS011;9390;51.244;6.982;2023-09-07T13:04:40;5.22;;;2.95;;
18520;SDS011;9390;51.244;6.982;2023-09-07T13:07:11;7.10;;;3.53;;
18520;SDS011;9390;51.244;6.982;2023-09-07T13:09:42;7.07;;;3.73;;
18520;SDS011;9390;51.244;6.982;2023-09-07T13:12:14;9.73;;;4.10;;
18520;SDS011;9390;51.244;6.982;2023-09-07T13:14:45;7.87;;;3.60;;
18520;SDS011;9390;51.244;6.982;2023-09-07T13:17:18;17.42;;;4.10;;
18520;SDS011;9390;51.244;6.982;2023-09-07T13:19:50;7.82;;;3.70;;
18520;SDS011;9390;51.244;6.982;2023-09-07T13:22:21;7.73;;;3.30;;
18520;SDS011;9390;51.244;6.982;2023-09-07T13:24:53;7.20;;;3.55;;
18520;SDS011;9390;51.244;6.982;2023-09-07T13:27:24;6.27;;;3.53;;
18520;SDS011;9390;51.244;6.982;2023-09-07T13:29:56;8.52;;;3.78;;
18520;SDS011;9390;51.244;6.982;2023-09-07T13:32:29;6.70;;;3.40;;
18520;SDS011;9390;51.244;6.982;2023-09-07T13:35:03;6.60;;;3.53;;
18520;SDS011;9390;51.244;6.982;2023-09-07T13:37:35;7.28;;;3.30;;
18520;SDS011;9390;51.244;6.982;2023-09-07T13:40:06;7.70;;;3.23;;
18520;SDS011;9390;51.244;6.982;2023-09-07T13:42:39;6.18;;;2.97;;
18520;SDS011;9390;51.244;6.982;2023-09-07T13:45:10;7.83;;;3.50;;
18520;SDS011;9390;51.244;6.982;2023-09-07T13:47:43;8.73;;;3.13;;
18520;SDS011;9390;51.244;6.982;2023-09-07T13:50:15;7.85;;;3.20;;
18520;SDS011;9390;51.244;6.982;2023-09-07T13:52:47;7.67;;;3.23;;
18520;SDS011;9390;51.244;6.982;2023-09-07T13:57:50;5.88;;;3.05;;
18520;SDS011;9390;51.244;6.982;2023-09-07T14:00:21;6.57;;;3.13;;
18520;SDS011;9390;51.244;6.982;2023-09-07T14:02:54;6.15;;;3.13;;
18520;SDS011;9390;51.244;6.982;2023-09-07T14:05:26;6.78;;;3.38;;
18520;SDS011;9390;51.244;6.982;2023-09-07T14:07:57;9.30;;;3.27;;
18520;SDS011;9390;51.244;6.982;2023-09-07T14:10:28;7.97;;;3.03;;
18520;SDS011;9390;51.244;6.982;2023-09-07T14:13:00;5.87;;;3.07;;
18520;SDS011;9390;51.244;6.982;2023-09-07T14:15:31;7.80;;;2.80;;
18520;SDS011;9390;51.244;6.982;2023-09-07T14:18:04;9.00;;;2.90;;
18520;SDS011;9390;51.244;6.982;2023-09-07T14:20:36;7.75;;;3.30;;
18520;SDS011;9390;51.244;6.982;2023-09-07T14:23:07;7.77;;;3.27;;
18520;SDS011;9390;51.244;6.982;2023-09-07T14:25:38;6.53;;;3.17;;
18520;SDS011;9390;51.244;6.982;2023-09-07T14:28:11;8.40;;;3.35;;
18520;SDS011;9390;51.244;6.982;2023-09-07T14:30:43;7.57;;;3.50;;
18520;SDS011;9390;51.244;6.982;2023-09-07T14:33:16;6.63;;;3.30;;
18520;SDS011;9390;51.244;6.982;2023-09-07T14:35:47;8.65;;;3.22;;
18520;SDS011;9390;51.244;6.982;2023-09-07T14:38:23;8.80;;;3.45;;
18520;SDS011;9390;51.244;6.982;2023-09-07T14:40:56;9.75;;;3.70;;
18520;SDS011;9390;51.244;6.982;2023-09-07T14:43:28;6.22;;;3.15;;
18520;SDS011;9390;51.244;6.982;2023-09-07T14:45:59;9.83;;;3.30;;
18520;SDS011;9390;51.244;6.982;2023-09-07T14:48:32;11.10;;;3.60;;
18520;SDS011;9390;51.244;6.982;2023-09-07T14:51:03;6.50;;;3.28;;
18520;SDS011;9390;51.244;6.982;2023-09-07T14:53:35;7.53;;;3.42;;
18520;SDS011;9390;51.244;6.982;2023-09-07T14:56:06;9.03;;;3.20;;
18520;SDS011;9390;51.244;6.982;2023-09-07T14:58:38;7.40;;;3.13;;
18520;SDS011;9390;51.244;6.982;2023-09-07T15:01:09;7.15;;;3.53;;
18520;SDS011;9390;51.244;6.982;2023-09-07T15:03:42;5.82;;;3.22;;
18520;SDS011;9390;51.244;6.982;2023-09-07T15:06:14;8.73;;;3.25;;
18520;SDS011;9390;51.244;6.982;2023-09-07T15:08:47;6.68;;;3.30;;
18520;SDS011;9390;51.244;6.982;2023-09-07T15:11:21;6.97;;;2.80;;
18520;SDS011;9390;51.244;6.982;2023-09-07T15:13:52;6.85;;;2.97;;
18520;SDS011;9390;51.244;6.982;2023-09-07T15:16:25;7.35;;;2.88;;
18520;SDS011;9390;51.244;6.982;2023-09-07T15:18:58;6.18;;;3.00;;
18520;SDS011;9390;51.244;6.982;2023-09-07T15:21:30;8.32;;;3.45;;
18520;SDS011;9390;51.244;6.982;2023-09-07T15:24:01;7.90;;;3.08;;
18520;SDS011;9390;51.244;6.982;2023-09-07T15:26:39;6.53;;;3.25;;
18520;SDS011;9390;51.244;6.982;2023-09-07T15:29:12;8.88;;;3.40;;
18520;SDS011;9390;51.244;6.982;2023-09-07T15:31:43;6.10;;;3.28;;
18520;SDS011;9390;51.244;6.982;2023-09-07T15:34:16;6.15;;;3.10;;